createdAt,value
2022-10-13T00:02:04.855Z,25.65
2022-10-13T00:04:31.785Z,26.45
2022-10-13T00:06:59.002Z,23.73
2022-10-13T00:09:25.963Z,25.58
2022-10-13T00:11:59.752Z,27.42
2022-10-13T00:14:26.697Z,25.92
2022-10-13T00:16:56.206Z,31.88
2022-10-13T00:19:23.036Z,19.83
2022-10-13T00:21:51.221Z,29.92
2022-10-13T00:24:18.108Z,31.60
2022-10-13T00:26:44.977Z,30.02
2022-10-13T00:29:11.858Z,28.75
2022-10-13T00:31:38.773Z,25.23
2022-10-13T00:34:05.660Z,26.52
2022-10-13T00:36:33.071Z,23.50
2022-10-13T00:39:00.044Z,25.17
2022-10-13T00:41:26.988Z,23.15
2022-10-13T00:44:01.222Z,21.48
2022-10-13T00:46:31.333Z,24.25
2022-10-13T00:49:09.215Z,22.52
2022-10-13T00:51:41.855Z,24.65
2022-10-13T00:54:11.585Z,24.42
2022-10-13T00:56:40.059Z,27.70
2022-10-13T00:59:23.188Z,20.58
2022-10-13T01:01:53.732Z,26.33
2022-10-13T01:04:26.814Z,24.33
2022-10-13T01:06:55.286Z,27.20
2022-10-13T01:09:22.292Z,29.42
2022-10-13T01:12:23.339Z,27.63
2022-10-13T01:15:13.659Z,23.90
2022-10-13T01:17:49.364Z,28.30
2022-10-13T01:20:40.243Z,23.45
2022-10-13T01:23:29.048Z,22.15
2022-10-13T01:26:14.115Z,23.02
2022-10-13T01:29:01.971Z,29.00
2022-10-13T01:31:39.025Z,28.40
2022-10-13T01:34:15.704Z,24.92
2022-10-13T01:37:13.756Z,29.85
2022-10-13T01:39:42.969Z,20.10
2022-10-13T01:42:38.090Z,26.77
2022-10-13T01:45:06.706Z,24.15
2022-10-13T01:47:35.596Z,30.02
2022-10-13T01:50:03.640Z,33.25
2022-10-13T01:52:36.671Z,30.45
2022-10-13T01:55:12.268Z,25.13
2022-10-13T01:57:42.143Z,33.53
2022-10-13T02:00:12.253Z,26.40
2022-10-13T02:03:13.229Z,24.50
2022-10-13T02:05:58.965Z,23.08
2022-10-13T02:08:30.205Z,32.30
2022-10-13T02:11:05.923Z,27.85
2022-10-13T02:13:36.699Z,22.63
2022-10-13T02:16:03.807Z,26.20
2022-10-13T02:18:35.805Z,32.28
2022-10-13T02:21:06.217Z,25.15
2022-10-13T02:23:33.265Z,23.60
2022-10-13T02:26:00.701Z,21.67
2022-10-13T02:28:28.333Z,24.50
2022-10-13T02:30:55.277Z,21.23
2022-10-13T02:33:22.190Z,23.08
2022-10-13T02:35:49.102Z,40.38
2022-10-13T02:38:16.291Z,28.90
2022-10-13T02:40:43.202Z,30.00
2022-10-13T02:43:10.084Z,35.22
2022-10-13T02:45:37.065Z,28.60
2022-10-13T02:48:04.006Z,27.15
2022-10-13T02:50:30.879Z,34.67
2022-10-13T02:52:57.836Z,24.83
2022-10-13T02:55:24.702Z,34.90
2022-10-13T02:57:51.655Z,25.58
2022-10-13T03:00:18.691Z,31.60
2022-10-13T03:02:45.613Z,22.08
2022-10-13T03:05:12.481Z,29.92
2022-10-13T03:07:39.361Z,28.40
2022-10-13T03:10:06.664Z,24.38
2022-10-13T03:12:33.730Z,31.17
2022-10-13T03:15:00.782Z,33.25
2022-10-13T03:17:27.761Z,42.47
2022-10-13T03:19:54.608Z,28.88
2022-10-13T03:22:21.790Z,27.27
2022-10-13T03:24:49.069Z,31.08
2022-10-13T03:27:16.056Z,33.53
2022-10-13T03:29:43.070Z,24.80
2022-10-13T03:32:10.025Z,28.83
2022-10-13T03:34:36.958Z,30.58
2022-10-13T03:37:04.286Z,27.02
2022-10-13T03:39:31.172Z,28.30
2022-10-13T03:41:58.032Z,29.15
2022-10-13T03:44:25.045Z,36.50
2022-10-13T03:46:52.093Z,27.50
2022-10-13T03:49:19.110Z,32.40
2022-10-13T03:51:46.290Z,31.60
2022-10-13T03:54:13.450Z,30.02
2022-10-13T03:56:40.832Z,26.00
2022-10-13T03:59:08.297Z,31.75
2022-10-13T04:01:35.317Z,28.75
2022-10-13T04:04:02.764Z,31.85
2022-10-13T04:06:30.992Z,27.92
2022-10-13T04:08:58.218Z,42.55
2022-10-13T04:11:25.293Z,25.52
2022-10-13T04:13:53.271Z,28.00
2022-10-13T04:16:23.946Z,31.75
2022-10-13T04:18:57.517Z,34.30
2022-10-13T04:21:25.103Z,36.95
2022-10-13T04:23:54.324Z,29.77
2022-10-13T04:26:23.288Z,34.45
2022-10-13T04:28:51.955Z,43.10
2022-10-13T04:31:19.423Z,34.45
2022-10-13T04:33:46.298Z,34.50
2022-10-13T04:36:14.787Z,36.92
2022-10-13T04:38:42.908Z,36.40
2022-10-13T04:41:11.236Z,32.05
2022-10-13T04:43:38.115Z,33.55
2022-10-13T04:46:07.825Z,37.83
2022-10-13T04:48:34.960Z,34.40
2022-10-13T04:51:10.300Z,34.20
2022-10-13T04:53:37.929Z,32.03
2022-10-13T04:56:08.553Z,36.83
2022-10-13T04:58:37.271Z,25.75
2022-10-13T05:01:06.204Z,38.50
2022-10-13T05:03:34.005Z,40.00
2022-10-13T05:06:01.669Z,33.35
2022-10-13T05:08:28.626Z,42.88
2022-10-13T05:11:01.399Z,40.70
2022-10-13T05:13:30.071Z,34.50
2022-10-13T05:15:59.691Z,36.13
2022-10-13T05:18:26.712Z,31.75
2022-10-13T05:20:53.660Z,31.55
2022-10-13T05:23:20.510Z,37.00
2022-10-13T05:25:47.502Z,36.13
2022-10-13T05:28:14.511Z,33.78
2022-10-13T05:30:41.568Z,40.05
2022-10-13T05:33:09.217Z,35.63
2022-10-13T05:35:36.285Z,32.85
2022-10-13T05:38:03.331Z,40.47
2022-10-13T05:40:30.343Z,33.47
2022-10-13T05:42:57.449Z,36.80
2022-10-13T05:45:25.085Z,40.88
2022-10-13T05:47:51.956Z,35.88
2022-10-13T05:50:19.398Z,35.88
2022-10-13T05:52:46.759Z,36.67
2022-10-13T05:55:15.834Z,37.13
2022-10-13T05:57:49.646Z,51.03
2022-10-13T06:00:18.718Z,37.20
2022-10-13T06:02:58.129Z,40.20
2022-10-13T06:05:27.458Z,44.75
2022-10-13T06:07:55.982Z,43.83
2022-10-13T06:10:23.414Z,34.38
2022-10-13T06:12:50.443Z,46.10
2022-10-13T06:15:17.493Z,37.70
2022-10-13T06:17:44.764Z,43.45
2022-10-13T06:20:12.345Z,40.45
2022-10-13T06:22:39.565Z,46.72
2022-10-13T06:25:07.676Z,53.38
2022-10-13T06:27:34.832Z,41.55
2022-10-13T06:30:02.177Z,43.10
2022-10-13T06:32:29.318Z,42.03
2022-10-13T06:34:56.641Z,45.88
2022-10-13T06:37:27.266Z,57.33
2022-10-13T06:39:54.857Z,46.03
2022-10-13T06:42:22.374Z,41.67
2022-10-13T06:44:49.761Z,40.78
2022-10-13T06:47:16.658Z,47.50
2022-10-13T06:49:43.669Z,47.58
2022-10-13T06:52:10.577Z,37.47
2022-10-13T06:54:37.572Z,42.17
2022-10-13T06:57:06.417Z,43.13
2022-10-13T06:59:33.703Z,45.35
2022-10-13T07:02:00.581Z,39.70
2022-10-13T07:04:28.296Z,38.25
2022-10-13T07:06:55.427Z,42.33
2022-10-13T07:09:22.894Z,41.70
2022-10-13T07:11:50.559Z,36.05
2022-10-13T07:14:17.601Z,39.00
2022-10-13T07:16:44.527Z,38.90
2022-10-13T07:19:11.610Z,40.17
2022-10-13T07:21:38.531Z,39.58
2022-10-13T07:24:05.906Z,37.80
2022-10-13T07:26:36.658Z,33.78
2022-10-13T07:29:03.861Z,35.40
2022-10-13T07:31:31.531Z,33.42
2022-10-13T07:33:59.506Z,38.00
2022-10-13T07:36:27.491Z,35.33
2022-10-13T07:38:54.547Z,35.20
2022-10-13T07:41:21.468Z,36.95
2022-10-13T07:43:48.416Z,36.10
2022-10-13T07:46:16.542Z,32.92
2022-10-13T07:48:43.481Z,28.75
2022-10-13T07:51:12.625Z,36.65
2022-10-13T07:53:42.330Z,33.28
2022-10-13T07:56:12.123Z,40.17
2022-10-13T07:58:41.372Z,41.03
2022-10-13T08:01:08.820Z,28.05
2022-10-13T08:06:05.589Z,32.83
2022-10-13T08:08:33.018Z,37.72
2022-10-13T08:11:14.640Z,36.20
2022-10-13T08:13:47.798Z,36.58
2022-10-13T08:16:14.745Z,34.28
2022-10-13T08:18:41.626Z,35.40
2022-10-13T08:21:39.345Z,36.00
2022-10-13T08:23:59.130Z,40.28
2022-10-13T08:26:28.429Z,32.45
2022-10-13T08:29:28.675Z,31.95
2022-10-13T08:31:45.870Z,34.08
2022-10-13T08:34:13.135Z,30.17
2022-10-13T08:36:40.602Z,38.70
2022-10-13T08:39:07.564Z,88.72
2022-10-13T08:41:45.797Z,81.18
2022-10-13T08:45:10.493Z,83.65
2022-10-13T08:47:10.489Z,108.30
2022-10-13T08:49:40.313Z,114.82
2022-10-13T08:52:18.469Z,98.78
2022-10-13T08:54:45.865Z,42.22
2022-10-13T08:57:12.977Z,60.20
2022-10-13T08:59:40.124Z,111.22
2022-10-13T09:02:14.117Z,65.72
2022-10-13T09:04:49.435Z,103.25
2022-10-13T09:07:33.154Z,89.13
2022-10-13T09:10:00.020Z,96.57
2022-10-13T09:12:29.687Z,76.18
2022-10-13T09:15:05.417Z,104.63
2022-10-13T09:17:34.822Z,77.07
2022-10-13T09:20:06.667Z,107.07
2022-10-13T09:22:38.989Z,61.20
2022-10-13T09:25:16.471Z,43.60
2022-10-13T09:27:49.300Z,62.08
2022-10-13T09:30:33.573Z,97.97
2022-10-13T09:35:37.633Z,67.32
2022-10-13T09:38:06.786Z,126.75
2022-10-13T09:40:34.556Z,81.80
2022-10-13T09:43:05.821Z,76.85
2022-10-13T09:45:32.946Z,52.95
2022-10-13T09:48:20.719Z,81.88
2022-10-13T09:50:52.778Z,74.72
2022-10-13T09:53:40.374Z,63.78
2022-10-13T09:56:20.840Z,82.45
2022-10-13T09:59:03.374Z,110.60
2022-10-13T10:01:34.979Z,57.75
2022-10-13T10:04:12.764Z,113.47
2022-10-13T10:06:41.101Z,153.75
2022-10-13T10:09:36.579Z,75.68
2022-10-13T10:12:04.875Z,136.00
2022-10-13T10:14:37.551Z,177.32
2022-10-13T10:17:49.490Z,127.40
2022-10-13T10:20:16.833Z,84.43
2022-10-13T10:23:11.028Z,70.60
2022-10-13T10:25:59.248Z,116.22
2022-10-13T10:28:50.725Z,94.82
2022-10-13T10:31:39.150Z,69.95
2022-10-13T10:34:24.670Z,42.97
2022-10-13T10:37:22.791Z,31.08
2022-10-13T10:40:23.691Z,34.35
2022-10-13T10:43:08.788Z,41.17
2022-10-13T10:45:39.068Z,38.90
2022-10-13T10:48:32.563Z,34.53
2022-10-13T10:51:01.231Z,29.77
2022-10-13T10:53:38.235Z,103.07
2022-10-13T10:56:29.592Z,109.40
2022-10-13T10:59:12.891Z,147.20
2022-10-13T11:01:49.401Z,55.63
2022-10-13T11:04:40.476Z,63.95
2022-10-13T11:07:23.614Z,72.38
2022-10-13T11:09:54.091Z,77.43
2022-10-13T11:12:21.476Z,52.08
2022-10-13T11:15:02.810Z,109.00
2022-10-13T11:17:38.560Z,99.82
2022-10-13T11:20:18.098Z,96.38
2022-10-13T11:23:00.329Z,93.93
2022-10-13T11:25:44.822Z,81.85
2022-10-13T11:28:23.807Z,79.72
2022-10-13T11:31:15.117Z,55.88
2022-10-13T11:33:41.948Z,67.13
2022-10-13T11:36:36.587Z,38.88
2022-10-13T11:41:56.693Z,44.47
2022-10-13T11:44:46.358Z,52.28
2022-10-13T11:47:23.885Z,54.55
2022-10-13T11:50:28.614Z,57.70
2022-10-13T11:53:41.893Z,55.90
2022-10-13T11:56:20.515Z,81.03
2022-10-13T11:58:48.174Z,54.53
2022-10-13T12:01:16.858Z,75.30
2022-10-13T12:03:46.618Z,55.35
2022-10-13T12:06:16.700Z,103.60
2022-10-13T12:08:48.220Z,40.25
2022-10-13T12:11:41.281Z,25.52
2022-10-13T12:14:27.401Z,24.42
2022-10-13T12:21:59.302Z,23.98
2022-10-13T12:24:30.717Z,23.05
2022-10-13T12:26:58.627Z,24.65
2022-10-13T12:29:28.897Z,24.55
2022-10-13T12:31:58.610Z,23.52
2022-10-13T12:34:36.070Z,27.80
2022-10-13T12:37:11.758Z,23.08
2022-10-13T12:39:39.402Z,21.48
2022-10-13T12:42:10.930Z,23.92
2022-10-13T12:44:41.594Z,21.95
2022-10-13T12:47:36.393Z,22.08
2022-10-13T12:50:25.291Z,21.77
2022-10-13T12:53:05.335Z,25.55
2022-10-13T12:55:33.579Z,24.08
2022-10-13T12:58:00.766Z,24.17
2022-10-13T13:00:30.686Z,25.98
2022-10-13T13:03:00.090Z,40.63
2022-10-13T13:05:40.736Z,45.65
2022-10-13T13:08:27.295Z,35.60
2022-10-13T13:10:58.891Z,47.08
2022-10-13T13:13:26.645Z,61.33
2022-10-13T13:15:54.543Z,47.63
2022-10-13T13:18:35.741Z,88.28
2022-10-13T13:21:14.234Z,97.50
2022-10-13T13:23:42.113Z,44.22
2022-10-13T13:26:14.683Z,57.38
2022-10-13T13:28:51.288Z,46.88
2022-10-13T13:31:21.233Z,30.27
2022-10-13T13:33:49.130Z,90.95
2022-10-13T13:36:25.050Z,40.00
2022-10-13T13:38:53.116Z,78.40
2022-10-13T13:41:20.781Z,63.42
2022-10-13T13:43:48.442Z,29.67
2022-10-13T13:46:24.770Z,28.30
2022-10-13T13:48:52.285Z,40.05
2022-10-13T13:51:19.401Z,37.60
2022-10-13T13:53:46.758Z,41.15
2022-10-13T13:56:15.629Z,41.45
2022-10-13T13:58:43.377Z,23.83
2022-10-13T14:01:11.347Z,22.23
2022-10-13T14:03:38.774Z,23.58
2022-10-13T14:06:06.111Z,26.23
2022-10-13T14:08:35.114Z,27.20
2022-10-13T14:11:06.427Z,24.63
2022-10-13T14:13:34.371Z,27.50
2022-10-13T14:16:02.436Z,33.88
2022-10-13T14:18:30.240Z,36.65
2022-10-13T14:20:57.354Z,45.13
2022-10-13T14:23:26.898Z,56.75
2022-10-13T14:25:54.121Z,50.90
2022-10-13T14:28:21.095Z,56.38
2022-10-13T14:30:48.115Z,43.17
2022-10-13T14:33:19.307Z,79.45
2022-10-13T14:35:47.038Z,58.00
2022-10-13T14:38:14.670Z,41.28
2022-10-13T14:40:42.356Z,54.13
2022-10-13T14:43:09.341Z,49.13
2022-10-13T14:45:36.332Z,47.90
2022-10-13T14:48:03.476Z,31.73
2022-10-13T14:50:30.379Z,37.95
2022-10-13T14:52:57.258Z,24.20
2022-10-13T14:55:24.323Z,37.35
2022-10-13T14:57:51.324Z,31.17
2022-10-13T15:00:18.293Z,35.03
2022-10-13T15:02:45.616Z,27.48
2022-10-13T15:05:12.516Z,34.70
2022-10-13T15:07:41.201Z,29.70
2022-10-13T15:10:08.815Z,28.05
2022-10-13T15:12:36.024Z,26.95
2022-10-13T15:15:03.519Z,23.80
2022-10-13T15:17:33.199Z,39.03
2022-10-13T15:20:00.570Z,29.52
2022-10-13T15:22:27.509Z,25.45
2022-10-13T15:24:54.510Z,24.27
2022-10-13T15:27:21.513Z,31.38
2022-10-13T15:29:48.495Z,27.63
2022-10-13T15:32:18.520Z,31.48
2022-10-13T15:34:45.849Z,22.90
2022-10-13T15:37:13.060Z,37.35
2022-10-13T15:39:40.058Z,26.10
2022-10-13T15:42:06.975Z,29.55
2022-10-13T15:44:51.297Z,27.38
2022-10-13T15:47:20.787Z,27.05
2022-10-13T15:49:47.618Z,33.33
2022-10-13T15:52:14.574Z,32.25
2022-10-13T15:54:41.483Z,25.33
2022-10-13T15:57:08.417Z,29.55
2022-10-13T15:59:35.335Z,29.67
2022-10-13T16:02:02.233Z,25.50
2022-10-13T16:04:32.345Z,22.63
2022-10-13T16:07:01.892Z,34.50
2022-10-13T16:09:29.226Z,24.95
2022-10-13T16:11:56.264Z,26.92
2022-10-13T16:14:23.150Z,29.27
2022-10-13T16:16:50.066Z,30.92
2022-10-13T16:19:16.914Z,29.92
2022-10-13T16:21:43.845Z,35.33
2022-10-13T16:24:10.741Z,36.78
2022-10-13T16:26:37.764Z,38.83
2022-10-13T16:29:04.813Z,36.05
2022-10-13T16:31:31.915Z,28.75
2022-10-13T16:33:58.869Z,28.98
2022-10-13T16:36:26.120Z,32.47
2022-10-13T16:38:56.886Z,32.55
2022-10-13T16:41:24.401Z,28.80
2022-10-13T16:43:51.542Z,38.15
2022-10-13T16:46:20.603Z,30.65
2022-10-13T16:48:48.044Z,41.20
2022-10-13T16:51:24.865Z,40.20
2022-10-13T16:53:54.046Z,37.42
2022-10-13T16:56:22.640Z,38.10
2022-10-13T16:58:51.232Z,37.63
2022-10-13T17:01:19.194Z,35.80
2022-10-13T17:03:50.137Z,33.53
2022-10-13T17:06:18.310Z,35.00
2022-10-13T17:08:45.422Z,37.80
2022-10-13T17:11:25.179Z,38.65
2022-10-13T17:13:52.365Z,35.10
2022-10-13T17:16:20.204Z,29.55
2022-10-13T17:18:47.475Z,37.20
2022-10-13T17:21:16.220Z,33.10
2022-10-13T17:23:48.173Z,44.15
2022-10-13T17:26:17.128Z,36.42
2022-10-13T17:28:44.542Z,35.22
2022-10-13T17:31:14.868Z,34.13
2022-10-13T17:33:42.939Z,45.25
2022-10-13T17:36:19.367Z,38.40
2022-10-13T17:38:47.696Z,42.47
2022-10-13T17:41:15.263Z,41.78
2022-10-13T17:43:43.046Z,29.55
2022-10-13T17:46:35.668Z,29.10
2022-10-13T17:49:04.171Z,34.97
2022-10-13T17:51:31.154Z,40.45
2022-10-13T17:54:00.429Z,33.45
2022-10-13T17:56:28.702Z,36.03
2022-10-13T17:58:55.994Z,33.40
2022-10-13T18:01:28.986Z,36.67
2022-10-13T18:03:58.856Z,30.43
2022-10-13T18:06:26.726Z,24.98
2022-10-13T18:08:54.286Z,30.98
2022-10-13T18:11:23.482Z,41.33
2022-10-13T18:13:52.117Z,33.50
2022-10-13T18:16:23.768Z,36.40
2022-10-13T18:18:51.903Z,30.45
2022-10-13T18:21:29.391Z,41.22
2022-10-13T18:23:58.267Z,38.08
2022-10-13T18:26:26.986Z,45.20
2022-10-13T18:28:54.520Z,47.13
2022-10-13T18:31:24.634Z,39.10
2022-10-13T18:33:52.599Z,37.95
2022-10-13T18:36:27.156Z,43.90
2022-10-13T18:38:55.496Z,43.45
2022-10-13T18:41:24.871Z,37.47
2022-10-13T18:43:52.165Z,52.58
2022-10-13T18:46:22.495Z,38.03
2022-10-13T18:48:49.443Z,52.75
2022-10-13T18:51:18.421Z,45.42
2022-10-13T18:53:47.350Z,51.80
2022-10-13T18:56:16.993Z,53.10
2022-10-13T18:58:43.882Z,50.80
2022-10-13T19:01:13.774Z,61.22
2022-10-13T19:03:41.622Z,51.13
2022-10-13T19:06:12.073Z,45.80
2022-10-13T19:08:42.927Z,46.83
2022-10-13T19:11:18.039Z,42.15
2022-10-13T19:13:45.527Z,46.22
2022-10-13T19:16:16.090Z,55.55
2022-10-13T19:18:43.074Z,46.47
2022-10-13T19:21:19.025Z,54.72
2022-10-13T19:23:46.530Z,49.05
2022-10-13T19:26:21.017Z,55.17
2022-10-13T19:28:48.259Z,50.35
2022-10-13T19:31:18.385Z,60.25
2022-10-13T19:33:47.319Z,53.33
2022-10-13T19:36:26.675Z,54.25
2022-10-13T19:38:54.613Z,69.78
2022-10-13T19:41:21.936Z,60.22
2022-10-13T19:43:50.047Z,59.40
2022-10-13T19:46:19.199Z,54.83
2022-10-13T19:48:46.966Z,77.88
2022-10-13T19:51:14.712Z,67.85
2022-10-13T19:53:42.134Z,62.67
2022-10-13T19:56:09.572Z,50.15
2022-10-13T19:58:36.985Z,54.00
2022-10-13T20:01:08.578Z,64.13
2022-10-13T20:03:35.610Z,74.13
2022-10-13T20:06:06.646Z,55.72
2022-10-13T20:08:33.769Z,54.35
2022-10-13T20:11:09.571Z,55.28
2022-10-13T20:13:37.772Z,62.20
2022-10-13T20:16:07.206Z,53.47
2022-10-13T20:18:34.962Z,59.85
2022-10-13T20:21:06.925Z,54.65
2022-10-13T20:23:34.825Z,56.13
2022-10-13T20:26:13.966Z,56.97
2022-10-13T20:28:45.610Z,55.88
2022-10-13T20:31:14.383Z,62.60
2022-10-13T20:33:42.387Z,57.17
2022-10-13T20:36:15.772Z,54.25
2022-10-13T20:38:43.081Z,53.35
2022-10-13T20:41:21.937Z,68.50
2022-10-13T20:43:49.850Z,66.20
2022-10-13T20:46:19.386Z,57.83
2022-10-13T20:51:34.559Z,67.35
2022-10-13T20:54:06.591Z,66.93
2022-10-13T20:56:33.740Z,61.42
2022-10-13T20:59:07.154Z,48.78
2022-10-13T21:01:34.559Z,57.83
2022-10-13T21:04:01.537Z,56.17
2022-10-13T21:06:28.425Z,50.22
2022-10-13T21:08:55.448Z,56.10
2022-10-13T21:11:24.180Z,52.58
2022-10-13T21:13:51.697Z,67.95
2022-10-13T21:16:24.112Z,59.92
2022-10-13T21:18:52.264Z,61.78
2022-10-13T21:21:22.060Z,57.03
2022-10-13T21:23:53.003Z,81.43
2022-10-13T21:26:22.099Z,50.53
2022-10-13T21:28:50.104Z,61.95
2022-10-13T21:31:18.783Z,53.65
2022-10-13T21:33:45.813Z,51.08
2022-10-13T21:36:16.228Z,62.03
2022-10-13T21:38:44.812Z,71.93
2022-10-13T21:41:13.156Z,69.38
2022-10-13T21:43:40.867Z,51.55
2022-10-13T21:46:08.467Z,53.03
2022-10-13T21:48:35.721Z,62.30
2022-10-13T21:51:13.204Z,60.95
2022-10-13T21:53:40.427Z,55.80
2022-10-13T21:56:08.799Z,51.95
2022-10-13T21:58:36.075Z,49.50
2022-10-13T22:01:04.088Z,50.30
2022-10-13T22:03:32.159Z,49.67
2022-10-13T22:06:03.212Z,59.63
2022-10-13T22:08:38.286Z,59.72
2022-10-13T22:11:07.580Z,46.50
2022-10-13T22:13:35.386Z,50.63
2022-10-13T22:16:13.395Z,41.72
2022-10-13T22:18:40.311Z,48.47
2022-10-13T22:21:10.169Z,46.53
2022-10-13T22:23:37.078Z,43.83
2022-10-13T22:26:04.324Z,47.15
2022-10-13T22:28:36.829Z,46.70
2022-10-13T22:31:09.378Z,44.03
2022-10-13T22:33:37.875Z,49.42
2022-10-13T22:36:14.557Z,48.20
2022-10-13T22:38:42.091Z,64.80
2022-10-13T22:41:09.742Z,45.83
2022-10-13T22:43:37.154Z,50.10
2022-10-13T22:46:04.656Z,39.60
2022-10-13T22:48:35.790Z,43.05
2022-10-13T22:51:06.676Z,50.10
2022-10-13T22:53:34.384Z,43.42
2022-10-13T22:56:05.918Z,38.85
2022-10-13T22:58:32.751Z,42.97
2022-10-13T23:01:16.953Z,40.50
2022-10-13T23:03:48.560Z,45.33
2022-10-13T23:06:17.637Z,45.63
2022-10-13T23:08:45.331Z,47.88
2022-10-13T23:11:12.297Z,51.50
2022-10-13T23:13:39.470Z,43.78
2022-10-13T23:16:12.952Z,40.50
2022-10-13T23:18:40.129Z,42.55
2022-10-13T23:21:10.035Z,40.30
2022-10-13T23:23:37.056Z,43.60
2022-10-13T23:26:06.189Z,47.25
2022-10-13T23:28:33.550Z,45.55
2022-10-13T23:31:01.608Z,54.83
2022-10-13T23:33:29.118Z,59.97
2022-10-13T23:35:57.473Z,59.38
2022-10-13T23:38:25.548Z,63.22
2022-10-13T23:40:52.728Z,52.75
2022-10-13T23:43:21.851Z,46.50
2022-10-13T23:45:48.823Z,44.53
2022-10-13T23:48:15.787Z,50.15
2022-10-13T23:50:42.656Z,50.28
2022-10-13T23:53:09.589Z,71.75
2022-10-13T23:55:40.137Z,131.35
2022-10-13T23:58:07.235Z,79.05
